Time;durP1;ratioP1;P1;durP2;ratioP2;P2;SDS_P1;SDS_P2;PMS_P1;PMS_P2;Temp;Humidity;BMP_temperature;BMP_pressure;BME280_temperature;BME280_humidity;BME280_pressure;Samples;Min_cycle;Max_cycle;Signal;HPM_P1;HPM_P2
2023/06/10 00:00:50;;;;;;;0.00;0.00;;;;;;;;;;6160022;23;20017;-78
2023/06/10 00:03:36;;;;;;;0.10;0.10;;;;;;;;;;6160701;23;20513;-78
2023/06/10 00:06:24;;;;;;;0.00;0.00;;;;;;;;;;6162368;23;20542;-78
2023/06/10 00:09:14;;;;;;;0.00;0.00;;;;;;;;;;6162498;23;20023;-78
2023/06/10 00:12:00;;;;;;;0.10;0.10;;;;;;;;;;6161175;23;20025;-78
2023/06/10 00:14:46;;;;;;;0.08;0.08;;;;;;;;;;6159454;23;20028;-78
2023/06/10 00:17:32;;;;;;;0.10;0.10;;;;;;;;;;6161801;23;20520;-78
2023/06/10 00:20:18;;;;;;;0.10;0.10;;;;;;;;;;6160973;23;20104;-78
2023/06/10 00:23:06;;;;;;;0.10;0.10;;;;;;;;;;6161506;23;20028;-78
2023/06/10 00:25:51;;;;;;;0.00;0.00;;;;;;;;;;6159455;23;20112;-78
2023/06/10 00:28:38;;;;;;;0.00;0.00;;;;;;;;;;6158967;23;20013;-78
2023/06/10 00:31:23;;;;;;;0.00;0.00;;;;;;;;;;6160765;23;20025;-78
2023/06/10 00:34:09;;;;;;;0.10;0.10;;;;;;;;;;6161387;23;20021;-78
2023/06/10 00:36:55;;;;;;;0.00;0.00;;;;;;;;;;6158075;23;20024;-78
2023/06/10 00:39:42;;;;;;;0.10;0.10;;;;;;;;;;6162940;23;20017;-78
2023/06/10 00:42:28;;;;;;;0.10;0.10;;;;;;;;;;6163166;23;20323;-78
2023/06/10 00:45:14;;;;;;;0.10;0.10;;;;;;;;;;6164354;23;20021;-78
2023/06/10 00:48:00;;;;;;;0.10;0.10;;;;;;;;;;6161271;23;20017;-78
2023/06/10 00:50:46;;;;;;;0.10;0.10;;;;;;;;;;6160957;23;20013;-78
2023/06/10 00:53:32;;;;;;;0.10;0.10;;;;;;;;;;6161139;23;20051;-78
2023/06/10 00:56:18;;;;;;;0.00;0.00;;;;;;;;;;6160552;23;20873;-78
2023/06/10 00:59:03;;;;;;;0.10;0.10;;;;;;;;;;6163272;23;20012;-78
2023/06/10 01:01:49;;;;;;;0.00;0.00;;;;;;;;;;6161186;23;20070;-78
2023/06/10 01:04:36;;;;;;;0.08;0.08;;;;;;;;;;6159630;23;20377;-78
2023/06/10 01:07:28;;;;;;;0.00;0.00;;;;;;;;;;6162336;23;20670;-78
2023/06/10 01:10:30;;;;;;;0.00;0.00;;;;;;;;;;6162092;23;20737;-78
2023/06/10 01:13:16;;;;;;;0.00;0.00;;;;;;;;;;6161738;23;20235;-78
2023/06/10 01:16:02;;;;;;;0.00;0.00;;;;;;;;;;6162547;23;20029;-78
2023/06/10 01:18:48;;;;;;;0.10;0.10;;;;;;;;;;6161021;23;20013;-78
2023/06/10 01:21:33;;;;;;;0.00;0.00;;;;;;;;;;6161405;23;20020;-78
2023/06/10 01:24:19;;;;;;;0.10;0.10;;;;;;;;;;6162012;23;20647;-78
2023/06/10 01:27:08;;;;;;;0.10;0.10;;;;;;;;;;6161949;23;20442;-78
2023/06/10 01:30:06;;;;;;;0.00;0.00;;;;;;;;;;6161781;23;20511;-78
2023/06/10 01:32:52;;;;;;;0.17;0.10;;;;;;;;;;6161541;23;20060;-78
2023/06/10 01:35:39;;;;;;;0.00;0.00;;;;;;;;;;6159228;23;20009;-78
2023/06/10 01:38:30;;;;;;;0.00;0.00;;;;;;;;;;6162450;23;20017;-78
2023/06/10 01:41:17;;;;;;;0.05;0.05;;;;;;;;;;6161927;23;20033;-78
2023/06/10 01:44:03;;;;;;;0.00;0.00;;;;;;;;;;6160951;23;20029;-78
2023/06/10 01:46:49;;;;;;;0.10;0.10;;;;;;;;;;6160504;23;20013;-78
2023/06/10 01:49:35;;;;;;;0.00;0.00;;;;;;;;;;6160766;23;20013;-78
2023/06/10 01:52:20;;;;;;;0.00;0.00;;;;;;;;;;6167885;23;20009;-78
2023/06/10 01:55:06;;;;;;;0.10;0.10;;;;;;;;;;6168580;23;20016;-78
2023/06/10 01:57:52;;;;;;;0.05;0.05;;;;;;;;;;6163365;23;20020;-78
2023/06/10 02:00:38;;;;;;;0.10;0.10;;;;;;;;;;6162418;23;20071;-78
2023/06/10 02:03:23;;;;;;;0.10;0.10;;;;;;;;;;6162583;23;20025;-77
2023/06/10 02:06:09;;;;;;;0.00;0.00;;;;;;;;;;6161569;23;20624;-78
2023/06/10 02:08:55;;;;;;;0.10;0.10;;;;;;;;;;6161520;23;20467;-77
2023/06/10 02:11:40;;;;;;;0.00;0.00;;;;;;;;;;6163390;23;20021;-78
2023/06/10 02:14:26;;;;;;;0.00;0.00;;;;;;;;;;6165866;23;20028;-78
2023/06/10 02:17:12;;;;;;;0.00;0.00;;;;;;;;;;6163125;23;20017;-78
2023/06/10 02:20:04;;;;;;;0.00;0.00;;;;;;;;;;6163489;23;20192;-78
2023/06/10 02:22:50;;;;;;;0.10;0.10;;;;;;;;;;6162731;23;20097;-77
2023/06/10 02:25:35;;;;;;;0.10;0.10;;;;;;;;;;6163856;23;20142;-78
2023/06/10 02:28:21;;;;;;;0.00;0.00;;;;;;;;;;6164915;23;20013;-78
2023/06/10 02:31:07;;;;;;;0.00;0.00;;;;;;;;;;6163339;23;20051;-78
2023/06/10 02:33:53;;;;;;;0.10;0.10;;;;;;;;;;6163480;23;20529;-78
2023/06/10 02:36:38;;;;;;;0.00;0.00;;;;;;;;;;6164999;23;20742;-78
2023/06/10 02:39:25;;;;;;;0.00;0.00;;;;;;;;;;6163602;23;20096;-78
2023/06/10 02:42:11;;;;;;;0.00;0.00;;;;;;;;;;6164895;23;20017;-78
2023/06/10 02:44:57;;;;;;;0.00;0.00;;;;;;;;;;6163635;23;20025;-78
2023/06/10 02:47:53;;;;;;;0.10;0.10;;;;;;;;;;6141782;23;20059;-78
2023/06/10 02:50:40;;;;;;;0.00;0.00;;;;;;;;;;6162417;23;20041;-78
2023/06/10 02:53:40;;;;;;;0.08;0.08;;;;;;;;;;6162524;23;20021;-78
2023/06/10 02:56:30;;;;;;;0.08;0.08;;;;;;;;;;6162759;23;20370;-78
2023/06/10 02:59:19;;;;;;;0.10;0.10;;;;;;;;;;6163771;23;20009;-78
2023/06/10 03:02:05;;;;;;;0.00;0.00;;;;;;;;;;6162462;23;20017;-78
2023/06/10 03:04:57;;;;;;;0.10;0.10;;;;;;;;;;6161450;23;20024;-78
2023/06/10 03:07:43;;;;;;;0.00;0.00;;;;;;;;;;6161976;23;20040;-78
2023/06/10 03:10:29;;;;;;;0.00;0.00;;;;;;;;;;6161490;23;20017;-78
2023/06/10 03:13:16;;;;;;;0.10;0.10;;;;;;;;;;6162470;23;20029;-78
2023/06/10 03:16:03;;;;;;;0.00;0.00;;;;;;;;;;6162763;23;20013;-78
2023/06/10 03:18:49;;;;;;;0.00;0.00;;;;;;;;;;6161889;23;20017;-78
2023/06/10 03:21:37;;;;;;;0.00;0.00;;;;;;;;;;6161679;23;20427;-77
2023/06/10 03:24:25;;;;;;;0.00;0.00;;;;;;;;;;6160635;23;20415;-78
2023/06/10 03:27:11;;;;;;;0.10;0.10;;;;;;;;;;6139843;23;20013;-78
2023/06/10 03:29:58;;;;;;;0.10;0.10;;;;;;;;;;6141396;23;20013;-78
2023/06/10 03:32:45;;;;;;;0.00;0.00;;;;;;;;;;6160310;23;20028;-78
2023/06/10 03:35:34;;;;;;;0.08;0.08;;;;;;;;;;6161094;23;20717;-78
2023/06/10 03:38:21;;;;;;;0.10;0.10;;;;;;;;;;6161106;23;20005;-78
2023/06/10 03:41:07;;;;;;;0.10;0.10;;;;;;;;;;6161465;23;20040;-78
2023/06/10 03:43:53;;;;;;;0.00;0.00;;;;;;;;;;6159374;23;20112;-78
2023/06/10 03:46:39;;;;;;;0.00;0.00;;;;;;;;;;6138464;23;20071;-78
2023/06/10 03:49:26;;;;;;;0.10;0.10;;;;;;;;;;6161516;23;20019;-78
2023/06/10 03:52:13;;;;;;;0.00;0.00;;;;;;;;;;6160845;23;20099;-78
2023/06/10 03:54:59;;;;;;;0.08;0.08;;;;;;;;;;6158888;23;20017;-78
2023/06/10 03:57:45;;;;;;;0.00;0.00;;;;;;;;;;6158534;23;20295;-78
2023/06/10 04:00:33;;;;;;;0.10;0.10;;;;;;;;;;6159259;23;20008;-78
2023/06/10 04:03:21;;;;;;;0.10;0.10;;;;;;;;;;6163903;23;20021;-78
2023/06/10 04:06:10;;;;;;;0.10;0.10;;;;;;;;;;6162313;23;20045;-78
2023/06/10 04:08:56;;;;;;;0.08;0.08;;;;;;;;;;6162249;23;20020;-78
2023/06/10 04:11:43;;;;;;;0.10;0.10;;;;;;;;;;6161208;23;20290;-78
2023/06/10 04:14:28;;;;;;;0.10;0.10;;;;;;;;;;6162482;23;20057;-78
2023/06/10 04:17:15;;;;;;;0.03;0.03;;;;;;;;;;6161505;23;20639;-78
2023/06/10 04:20:03;;;;;;;0.10;0.10;;;;;;;;;;6161967;23;20017;-78
2023/06/10 04:22:49;;;;;;;0.08;0.08;;;;;;;;;;6161434;23;20021;-78
2023/06/10 04:25:35;;;;;;;0.00;0.00;;;;;;;;;;6160952;23;20013;-78
2023/06/10 04:28:21;;;;;;;0.10;0.10;;;;;;;;;;6161649;23;20079;-78
2023/06/10 04:31:07;;;;;;;0.00;0.00;;;;;;;;;;6162792;23;20024;-78
2023/06/10 04:33:53;;;;;;;0.00;0.00;;;;;;;;;;6160357;23;20512;-78
2023/06/10 04:36:39;;;;;;;0.10;0.10;;;;;;;;;;6159440;23;20083;-78
2023/06/10 04:39:25;;;;;;;0.10;0.10;;;;;;;;;;6162840;23;20014;-78
2023/06/10 04:42:10;;;;;;;0.10;0.10;;;;;;;;;;6162357;23;20061;-78
2023/06/10 04:44:59;;;;;;;0.10;0.10;;;;;;;;;;6161607;23;20040;-78
2023/06/10 04:47:44;;;;;;;0.10;0.10;;;;;;;;;;6160465;23;20386;-78
2023/06/10 04:50:32;;;;;;;0.00;0.00;;;;;;;;;;6161622;23;20021;-78
2023/06/10 04:53:18;;;;;;;0.00;0.00;;;;;;;;;;6163356;23;20091;-77
2023/06/10 04:56:07;;;;;;;0.10;0.10;;;;;;;;;;6162486;23;20021;-77
2023/06/10 04:58:53;;;;;;;0.10;0.10;;;;;;;;;;6161724;23;20019;-77
2023/06/10 05:01:39;;;;;;;0.08;0.08;;;;;;;;;;6162121;23;20037;-77
2023/06/10 05:04:24;;;;;;;0.10;0.10;;;;;;;;;;6162228;23;20044;-77
2023/06/10 05:07:10;;;;;;;0.00;0.00;;;;;;;;;;6161074;23;20201;-78
2023/06/10 05:09:56;;;;;;;0.10;0.10;;;;;;;;;;6162132;23;20546;-77
2023/06/10 05:12:43;;;;;;;0.10;0.10;;;;;;;;;;6162475;23;20025;-77
2023/06/10 05:15:29;;;;;;;0.10;0.10;;;;;;;;;;6161903;23;20017;-77
2023/06/10 05:18:15;;;;;;;0.10;0.10;;;;;;;;;;6162893;23;20023;-77
2023/06/10 05:21:01;;;;;;;0.10;0.10;;;;;;;;;;6159661;23;20053;-77
2023/06/10 05:23:47;;;;;;;0.10;0.10;;;;;;;;;;6160404;23;20021;-77
2023/06/10 05:26:33;;;;;;;0.10;0.10;;;;;;;;;;6164354;23;20017;-77
2023/06/10 05:29:21;;;;;;;0.10;0.10;;;;;;;;;;6164143;23;20057;-77
2023/06/10 05:32:07;;;;;;;0.00;0.00;;;;;;;;;;6163106;23;20052;-77
2023/06/10 05:34:52;;;;;;;0.10;0.10;;;;;;;;;;6162672;23;20104;-77
2023/06/10 05:37:38;;;;;;;0.05;0.05;;;;;;;;;;6162343;23;20124;-77
2023/06/10 05:40:24;;;;;;;0.10;0.10;;;;;;;;;;6164140;23;20087;-77
2023/06/10 05:43:11;;;;;;;0.00;0.00;;;;;;;;;;6164198;23;20048;-77
2023/06/10 05:45:56;;;;;;;0.10;0.10;;;;;;;;;;6163140;23;20848;-78
2023/06/10 05:48:42;;;;;;;0.10;0.10;;;;;;;;;;6162143;23;20021;-78
2023/06/10 05:51:28;;;;;;;0.10;0.10;;;;;;;;;;6161999;23;20016;-77
2023/06/10 05:54:14;;;;;;;0.10;0.10;;;;;;;;;;6164323;23;20051;-78
2023/06/10 05:56:59;;;;;;;0.10;0.10;;;;;;;;;;6161391;23;20017;-77
2023/06/10 05:59:45;;;;;;;0.10;0.10;;;;;;;;;;6161419;23;20051;-78
2023/06/10 06:02:31;;;;;;;0.10;0.10;;;;;;;;;;6163021;23;20013;-78
2023/06/10 06:05:16;;;;;;;0.10;0.10;;;;;;;;;;6163350;23;20021;-78
2023/06/10 06:08:02;;;;;;;0.10;0.10;;;;;;;;;;6161707;23;20013;-77
2023/06/10 06:10:50;;;;;;;0.10;0.10;;;;;;;;;;6162676;23;20343;-77
2023/06/10 06:13:36;;;;;;;0.00;0.00;;;;;;;;;;6164085;23;20029;-77
2023/06/10 06:16:24;;;;;;;0.10;0.10;;;;;;;;;;6163371;23;20028;-78
2023/06/10 06:19:11;;;;;;;0.00;0.00;;;;;;;;;;6163950;23;20021;-77
2023/06/10 06:21:56;;;;;;;0.10;0.10;;;;;;;;;;6161470;23;20037;-78
2023/06/10 06:24:45;;;;;;;0.10;0.10;;;;;;;;;;6163926;23;20100;-77
2023/06/10 06:27:31;;;;;;;0.00;0.00;;;;;;;;;;6162654;23;20013;-77
2023/06/10 06:30:16;;;;;;;0.10;0.10;;;;;;;;;;6162721;23;20029;-77
2023/06/10 06:33:02;;;;;;;0.10;0.10;;;;;;;;;;6165572;23;20096;-77
2023/06/10 06:35:48;;;;;;;0.10;0.10;;;;;;;;;;6161154;23;20767;-77
2023/06/10 06:38:33;;;;;;;0.10;0.10;;;;;;;;;;6161093;23;20017;-77
2023/06/10 06:41:19;;;;;;;0.10;0.10;;;;;;;;;;6162774;23;20084;-77
2023/06/10 06:44:05;;;;;;;0.05;0.05;;;;;;;;;;6162616;23;20092;-78
2023/06/10 06:46:56;;;;;;;0.10;0.10;;;;;;;;;;6162071;23;20021;-77
2023/06/10 06:49:41;;;;;;;0.10;0.10;;;;;;;;;;6161033;23;20020;-78
2023/06/10 06:52:28;;;;;;;0.10;0.10;;;;;;;;;;6163991;23;20013;-78
2023/06/10 06:55:14;;;;;;;0.10;0.10;;;;;;;;;;6162385;23;20028;-78
2023/06/10 06:58:02;;;;;;;0.10;0.10;;;;;;;;;;6160675;23;20017;-78
2023/06/10 07:00:48;;;;;;;0.10;0.10;;;;;;;;;;6160720;23;20017;-77
2023/06/10 07:03:34;;;;;;;0.10;0.10;;;;;;;;;;6162692;23;20055;-77
2023/06/10 07:06:19;;;;;;;0.00;0.00;;;;;;;;;;6162862;23;20017;-77
2023/06/10 07:09:06;;;;;;;0.10;0.10;;;;;;;;;;6161584;23;20020;-77
2023/06/10 07:11:52;;;;;;;0.10;0.10;;;;;;;;;;6161724;23;20132;-78
2023/06/10 07:14:38;;;;;;;0.10;0.10;;;;;;;;;;6162573;23;20024;-78
2023/06/10 07:17:23;;;;;;;0.10;0.10;;;;;;;;;;6139962;23;20021;-77
2023/06/10 07:20:09;;;;;;;0.10;0.10;;;;;;;;;;6162607;23;20017;-78
2023/06/10 07:22:55;;;;;;;0.10;0.10;;;;;;;;;;6161165;23;20013;-77
2023/06/10 07:25:41;;;;;;;0.10;0.10;;;;;;;;;;6160864;23;20513;-78
2023/06/10 07:28:27;;;;;;;0.10;0.10;;;;;;;;;;6161760;23;20013;-78
2023/06/10 07:31:12;;;;;;;0.10;0.10;;;;;;;;;;6163062;23;20017;-77
2023/06/10 07:33:58;;;;;;;0.10;0.10;;;;;;;;;;6161723;23;20020;-77
2023/06/10 07:36:44;;;;;;;0.10;0.10;;;;;;;;;;6159737;23;20470;-77
2023/06/10 07:39:30;;;;;;;0.10;0.10;;;;;;;;;;6162989;23;20017;-77
2023/06/10 07:42:15;;;;;;;0.10;0.10;;;;;;;;;;6162995;23;20059;-77
2023/06/10 07:45:02;;;;;;;0.10;0.10;;;;;;;;;;6161916;23;20520;-76
2023/06/10 07:47:48;;;;;;;0.00;0.00;;;;;;;;;;6160514;23;20052;-78
2023/06/10 07:50:34;;;;;;;0.00;0.00;;;;;;;;;;6163485;23;20052;-76
2023/06/10 07:53:19;;;;;;;0.05;0.05;;;;;;;;;;6163364;23;20052;-77
2023/06/10 07:56:05;;;;;;;0.10;0.10;;;;;;;;;;6162022;23;20013;-77
2023/06/10 07:58:51;;;;;;;0.10;0.10;;;;;;;;;;6162096;23;20020;-78
2023/06/10 08:01:39;;;;;;;0.03;0.03;;;;;;;;;;6162854;23;20071;-77
2023/06/10 08:04:24;;;;;;;0.10;0.10;;;;;;;;;;6163160;23;20025;-76
2023/06/10 08:07:10;;;;;;;0.10;0.10;;;;;;;;;;6161485;23;20044;-77
2023/06/10 08:09:56;;;;;;;0.05;0.05;;;;;;;;;;6162293;23;20020;-76
2023/06/10 08:12:42;;;;;;;0.10;0.10;;;;;;;;;;6119577;23;20096;-77
2023/06/10 08:15:27;;;;;;;0.00;0.00;;;;;;;;;;6161814;23;20120;-77
2023/06/10 08:18:13;;;;;;;0.10;0.10;;;;;;;;;;6162358;23;20116;-76
2023/06/10 08:20:59;;;;;;;0.10;0.10;;;;;;;;;;6161901;23;20648;-76
2023/06/10 08:23:44;;;;;;;0.05;0.05;;;;;;;;;;6161975;23;20017;-76
2023/06/10 08:26:30;;;;;;;0.00;0.00;;;;;;;;;;6161437;23;20013;-77
2023/06/10 08:29:16;;;;;;;0.10;0.10;;;;;;;;;;6161428;23;20079;-76
2023/06/10 08:32:02;;;;;;;0.10;0.10;;;;;;;;;;6164543;23;20804;-77
2023/06/10 08:34:47;;;;;;;0.03;0.03;;;;;;;;;;6161505;23;20547;-78
2023/06/10 08:37:33;;;;;;;0.10;0.10;;;;;;;;;;6162446;23;20028;-78
2023/06/10 08:40:19;;;;;;;0.00;0.00;;;;;;;;;;6163023;23;20013;-76
2023/06/10 08:43:12;;;;;;;0.03;0.03;;;;;;;;;;6163194;23;20024;-77
2023/06/10 08:46:00;;;;;;;0.00;0.00;;;;;;;;;;6159436;23;20017;-77
2023/06/10 08:48:47;;;;;;;0.10;0.10;;;;;;;;;;6160178;23;20405;-77
2023/06/10 08:51:34;;;;;;;0.10;0.10;;;;;;;;;;6161437;23;20664;-77
2023/06/10 08:54:25;;;;;;;0.10;0.10;;;;;;;;;;6161915;23;20017;-77
2023/06/10 08:57:10;;;;;;;;;;;;;;;;;;6162779;23;20708;-76
2023/06/10 08:59:57;;;;;;;0.10;0.10;;;;;;;;;;6163812;23;19908;-76
2023/06/10 09:02:43;;;;;;;0.00;0.00;;;;;;;;;;6161380;23;20035;-77
2023/06/10 09:05:29;;;;;;;0.00;0.00;;;;;;;;;;6164452;23;20045;-77
2023/06/10 09:11:58;;;;;;;0.05;0.05;;;;;;;;;;6138646;23;20116;-77
2023/06/10 09:14:44;;;;;;;0.10;0.10;;;;;;;;;;6130552;23;20025;-77
2023/06/10 09:17:29;;;;;;;0.10;0.10;;;;;;;;;;6162319;23;20013;-76
2023/06/10 09:20:16;;;;;;;0.10;0.10;;;;;;;;;;6165472;23;20074;-77
2023/06/10 09:23:01;;;;;;;0.10;0.10;;;;;;;;;;6161323;23;20017;-77
2023/06/10 09:25:55;;;;;;;0.08;0.08;;;;;;;;;;6160325;23;20642;-76
2023/06/10 09:28:44;;;;;;;0.10;0.10;;;;;;;;;;6163273;23;20024;-78
2023/06/10 09:31:30;;;;;;;0.10;0.10;;;;;;;;;;6163350;23;20075;-77
2023/06/10 09:34:17;;;;;;;0.00;0.00;;;;;;;;;;6163664;23;20107;-78
2023/06/10 09:37:02;;;;;;;0.10;0.10;;;;;;;;;;6162473;23;20017;-76
2023/06/10 09:40:01;;;;;;;0.10;0.10;;;;;;;;;;6161363;23;20024;-78
2023/06/10 09:42:54;;;;;;;0.00;0.00;;;;;;;;;;6162214;23;20092;-77
2023/06/10 09:45:40;;;;;;;0.00;0.00;;;;;;;;;;6163463;23;20024;-77
2023/06/10 09:48:26;;;;;;;0.00;0.00;;;;;;;;;;6163859;23;20012;-76
2023/06/10 09:51:12;;;;;;;0.00;0.00;;;;;;;;;;6162772;23;20119;-77
2023/06/10 09:53:58;;;;;;;0.10;0.10;;;;;;;;;;6162221;23;20017;-77
2023/06/10 09:56:46;;;;;;;0.10;0.10;;;;;;;;;;6162050;23;20017;-77
2023/06/10 09:59:33;;;;;;;0.00;0.00;;;;;;;;;;6163154;23;20418;-77
2023/06/10 10:02:19;;;;;;;0.10;0.10;;;;;;;;;;6145465;23;20309;-76
2023/06/10 10:05:06;;;;;;;0.10;0.10;;;;;;;;;;6160722;23;20365;-77
2023/06/10 10:07:52;;;;;;;0.08;0.08;;;;;;;;;;6161210;23;20355;-77
2023/06/10 10:10:38;;;;;;;0.10;0.10;;;;;;;;;;6161406;23;20019;-77
2023/06/10 10:13:25;;;;;;;0.10;0.10;;;;;;;;;;6163220;23;20071;-77
2023/06/10 10:16:11;;;;;;;0.10;0.10;;;;;;;;;;6163067;23;20012;-77
2023/06/10 10:19:04;;;;;;;0.10;0.10;;;;;;;;;;6163167;23;20036;-77
2023/06/10 10:21:52;;;;;;;0.00;0.00;;;;;;;;;;6161289;23;20020;-76
2023/06/10 10:24:58;;;;;;;0.00;0.00;;;;;;;;;;6163910;23;20028;-77
2023/06/10 10:27:48;;;;;;;0.10;0.10;;;;;;;;;;6163908;23;20689;-77
2023/06/10 10:30:37;;;;;;;0.00;0.00;;;;;;;;;;6161175;23;20021;-78
2023/06/10 10:33:26;;;;;;;0.10;0.10;;;;;;;;;;6161780;23;20032;-77
2023/06/10 10:36:13;;;;;;;0.10;0.10;;;;;;;;;;6159800;23;20092;-78
2023/06/10 10:39:01;;;;;;;0.10;0.10;;;;;;;;;;6160345;23;20095;-78
2023/06/10 10:41:48;;;;;;;0.10;0.10;;;;;;;;;;6161271;23;20671;-77
2023/06/10 10:44:34;;;;;;;0.05;0.05;;;;;;;;;;6163279;23;20755;-77
2023/06/10 10:47:21;;;;;;;0.10;0.10;;;;;;;;;;6164281;23;20386;-78
2023/06/10 10:50:17;;;;;;;0.00;0.00;;;;;;;;;;6162043;23;20293;-79
2023/06/10 10:53:03;;;;;;;0.00;0.00;;;;;;;;;;6160755;23;20016;-78
2023/06/10 10:55:59;;;;;;;0.10;0.10;;;;;;;;;;6161482;23;20021;-77
2023/06/10 10:59:04;;;;;;;0.10;0.10;;;;;;;;;;6160917;23;20013;-77
2023/06/10 11:01:51;;;;;;;0.00;0.00;;;;;;;;;;6161320;23;20579;-77
2023/06/10 11:04:36;;;;;;;0.00;0.00;;;;;;;;;;6164548;23;20031;-77
2023/06/10 11:07:22;;;;;;;0.10;0.10;;;;;;;;;;6163739;23;20140;-77
2023/06/10 11:10:09;;;;;;;0.10;0.10;;;;;;;;;;6162274;23;20088;-78
2023/06/10 11:12:56;;;;;;;0.10;0.10;;;;;;;;;;6161161;23;20639;-78
2023/06/10 11:15:46;;;;;;;0.10;0.10;;;;;;;;;;6162801;23;20135;-78
2023/06/10 11:18:33;;;;;;;;;;;;;;;;;;6162244;23;20041;-78
2023/06/10 11:21:18;;;;;;;0.20;0.10;;;;;;;;;;6163502;23;20315;-78
2023/06/10 11:24:16;;;;;;;0.10;0.10;;;;;;;;;;6162641;23;20647;-78
2023/06/10 11:27:15;;;;;;;0.10;0.10;;;;;;;;;;6159829;23;20064;-79
2023/06/10 11:30:00;;;;;;;0.08;0.08;;;;;;;;;;6161269;23;20013;-78
2023/06/10 11:32:51;;;;;;;0.10;0.10;;;;;;;;;;6160792;23;20108;-78
2023/06/10 11:35:37;;;;;;;0.10;0.10;;;;;;;;;;6162560;23;20017;-78
2023/06/10 11:38:22;;;;;;;0.10;0.10;;;;;;;;;;6162442;23;20009;-78
2023/06/10 11:41:08;;;;;;;0.10;0.10;;;;;;;;;;6160658;23;20328;-78
2023/06/10 11:43:57;;;;;;;0.10;0.10;;;;;;;;;;6161055;23;20087;-78
2023/06/10 11:46:45;;;;;;;0.10;0.10;;;;;;;;;;6161076;23;20017;-80
2023/06/10 11:49:30;;;;;;;0.10;0.10;;;;;;;;;;6162167;23;20068;-78
2023/06/10 11:52:16;;;;;;;0.10;0.10;;;;;;;;;;6162110;23;20334;-78
2023/06/10 11:55:02;;;;;;;0.10;0.10;;;;;;;;;;6160007;23;20601;-79
2023/06/10 11:57:48;;;;;;;0.10;0.10;;;;;;;;;;6158755;23;20021;-79
2023/06/10 12:00:34;;;;;;;0.00;0.00;;;;;;;;;;6160370;23;20312;-79
2023/06/10 12:03:22;;;;;;;0.00;0.00;;;;;;;;;;6157807;23;20087;-79
2023/06/10 12:06:07;;;;;;;0.10;0.10;;;;;;;;;;6160305;23;20636;-79
2023/06/10 12:08:53;;;;;;;0.00;0.00;;;;;;;;;;6160212;23;20099;-78
2023/06/10 12:11:39;;;;;;;0.10;0.10;;;;;;;;;;6161305;23;20020;-79
2023/06/10 12:14:44;;;;;;;0.20;0.20;;;;;;;;;;6159711;23;20111;-79
2023/06/10 12:17:29;;;;;;;0.10;0.10;;;;;;;;;;6160619;23;20017;-79
2023/06/10 12:20:25;;;;;;;0.10;0.10;;;;;;;;;;6160786;23;20016;-79
2023/06/10 12:23:11;;;;;;;0.00;0.00;;;;;;;;;;6161530;23;20020;-79
2023/06/10 12:25:59;;;;;;;0.10;0.10;;;;;;;;;;6161365;23;20043;-79
2023/06/10 12:28:50;;;;;;;0.10;0.10;;;;;;;;;;6160458;23;20012;-79
2023/06/10 12:31:51;;;;;;;0.20;0.20;;;;;;;;;;6160259;23;20017;-79
2023/06/10 12:34:38;;;;;;;0.00;0.00;;;;;;;;;;6160770;23;20016;-79
2023/06/10 12:37:24;;;;;;;0.00;0.00;;;;;;;;;;6163013;23;20013;-79
2023/06/10 12:40:10;;;;;;;0.10;0.10;;;;;;;;;;6164494;23;20024;-79
2023/06/10 12:42:56;;;;;;;0.10;0.10;;;;;;;;;;6163140;23;20017;-79
2023/06/10 12:45:44;;;;;;;0.10;0.10;;;;;;;;;;6163767;23;20025;-79
2023/06/10 12:48:30;;;;;;;0.10;0.10;;;;;;;;;;6163345;23;20013;-80
2023/06/10 12:51:16;;;;;;;0.10;0.10;;;;;;;;;;6162428;23;20023;-80
2023/06/10 12:54:02;;;;;;;0.10;0.10;;;;;;;;;;6161444;23;20083;-79
2023/06/10 12:56:48;;;;;;;0.08;0.08;;;;;;;;;;6161538;23;20632;-80
2023/06/10 12:59:33;;;;;;;0.10;0.10;;;;;;;;;;6164221;23;20013;-79
2023/06/10 13:02:23;;;;;;;0.10;0.10;;;;;;;;;;6163100;23;20120;-79
2023/06/10 13:05:09;;;;;;;0.08;0.08;;;;;;;;;;6160753;23;20032;-80
2023/06/10 13:07:55;;;;;;;0.10;0.10;;;;;;;;;;6161658;23;20024;-79
2023/06/10 13:10:41;;;;;;;0.00;0.00;;;;;;;;;;6162271;23;20052;-80
2023/06/10 13:13:27;;;;;;;0.15;0.15;;;;;;;;;;6162833;23;20072;-79
2023/06/10 13:16:12;;;;;;;0.00;0.00;;;;;;;;;;6163891;23;20090;-79
2023/06/10 13:18:59;;;;;;;0.10;0.10;;;;;;;;;;6162769;23;20013;-79
2023/06/10 13:21:44;;;;;;;0.10;0.10;;;;;;;;;;6159282;23;20017;-79
2023/06/10 13:24:31;;;;;;;0.00;0.00;;;;;;;;;;6162770;23;20412;-79
2023/06/10 13:27:17;;;;;;;0.00;0.00;;;;;;;;;;6162367;23;20510;-78
2023/06/10 13:30:02;;;;;;;0.10;0.10;;;;;;;;;;6160439;23;20020;-79
2023/06/10 13:32:48;;;;;;;0.10;0.10;;;;;;;;;;6160619;23;20382;-79
2023/06/10 13:35:36;;;;;;;0.00;0.00;;;;;;;;;;6163771;23;20059;-80
2023/06/10 13:38:22;;;;;;;0.08;0.00;;;;;;;;;;6161311;23;20013;-79
2023/06/10 13:41:09;;;;;;;0.08;0.00;;;;;;;;;;6159314;23;20023;-79
2023/06/10 13:43:55;;;;;;;0.00;0.00;;;;;;;;;;6162141;23;20028;-78
2023/06/10 13:46:41;;;;;;;0.00;0.00;;;;;;;;;;6162950;23;20070;-79
2023/06/10 13:49:27;;;;;;;0.10;0.10;;;;;;;;;;6164443;23;20112;-79
2023/06/10 13:52:12;;;;;;;0.20;0.20;;;;;;;;;;6163403;23;20100;-79
2023/06/10 13:54:58;;;;;;;0.10;0.10;;;;;;;;;;6158471;23;20119;-79
2023/06/10 13:57:44;;;;;;;0.10;0.10;;;;;;;;;;6160648;23;20028;-80
2023/06/10 14:00:30;;;;;;;0.10;0.10;;;;;;;;;;6161840;23;20052;-79
2023/06/10 14:03:15;;;;;;;0.05;0.05;;;;;;;;;;6162711;23;20067;-80
2023/06/10 14:06:02;;;;;;;0.10;0.10;;;;;;;;;;6162307;23;20089;-80
2023/06/10 14:08:47;;;;;;;0.00;0.00;;;;;;;;;;6163443;23;20099;-80
2023/06/10 14:11:33;;;;;;;0.03;0.03;;;;;;;;;;6161339;23;20017;-80
2023/06/10 14:14:19;;;;;;;0.10;0.10;;;;;;;;;;6162239;23;20025;-80
2023/06/10 14:17:05;;;;;;;0.10;0.10;;;;;;;;;;6161239;23;20852;-80
2023/06/10 14:19:50;;;;;;;0.10;0.10;;;;;;;;;;6161761;23;20012;-80
2023/06/10 14:22:36;;;;;;;0.10;0.10;;;;;;;;;;6163860;23;20013;-80
2023/06/10 14:25:22;;;;;;;0.10;0.10;;;;;;;;;;6164637;23;20532;-80
2023/06/10 14:28:07;;;;;;;0.00;0.00;;;;;;;;;;6160917;23;20017;-80
2023/06/10 14:30:53;;;;;;;0.10;0.10;;;;;;;;;;6163866;23;20024;-80
2023/06/10 14:33:39;;;;;;;0.00;0.00;;;;;;;;;;6161816;23;20028;-80
2023/06/10 14:36:25;;;;;;;0.10;0.10;;;;;;;;;;6164400;23;20388;-80
2023/06/10 14:39:11;;;;;;;0.10;0.10;;;;;;;;;;6162744;23;20025;-80
2023/06/10 14:41:56;;;;;;;0.10;0.10;;;;;;;;;;6162739;23;20599;-80
2023/06/10 14:44:42;;;;;;;0.10;0.10;;;;;;;;;;6162741;23;20017;-80
2023/06/10 14:47:28;;;;;;;0.10;0.10;;;;;;;;;;6163403;23;20013;-80
2023/06/10 14:50:14;;;;;;;0.00;0.00;;;;;;;;;;6161921;23;20021;-80
2023/06/10 14:53:00;;;;;;;0.10;0.10;;;;;;;;;;6160653;23;20013;-80
2023/06/10 14:55:46;;;;;;;0.10;0.10;;;;;;;;;;6163266;23;20028;-80
2023/06/10 14:58:31;;;;;;;0.10;0.10;;;;;;;;;;6164588;23;20732;-80
2023/06/10 15:01:18;;;;;;;0.00;0.00;;;;;;;;;;6160860;23;20051;-80
2023/06/10 15:04:03;;;;;;;0.00;0.00;;;;;;;;;;6160347;23;20485;-80
2023/06/10 15:06:50;;;;;;;0.10;0.10;;;;;;;;;;6160059;23;20644;-80
2023/06/10 15:09:35;;;;;;;0.10;0.10;;;;;;;;;;6162134;23;20021;-80
2023/06/10 15:12:21;;;;;;;0.10;0.10;;;;;;;;;;6161425;23;20020;-80
2023/06/10 15:15:07;;;;;;;0.10;0.10;;;;;;;;;;6163097;23;20769;-79
2023/06/10 15:17:53;;;;;;;0.00;0.00;;;;;;;;;;6161397;23;20411;-80
2023/06/10 15:20:39;;;;;;;0.10;0.10;;;;;;;;;;6159865;23;20056;-80
2023/06/10 15:23:25;;;;;;;0.10;0.10;;;;;;;;;;6160819;23;20009;-80
2023/06/10 15:26:11;;;;;;;0.10;0.10;;;;;;;;;;6160348;23;20724;-80
2023/06/10 15:28:57;;;;;;;0.10;0.10;;;;;;;;;;6161298;23;20477;-80
2023/06/10 15:31:42;;;;;;;0.10;0.10;;;;;;;;;;6163451;23;20704;-80
2023/06/10 15:34:28;;;;;;;0.10;0.10;;;;;;;;;;6162788;23;20067;-80
2023/06/10 15:37:14;;;;;;;0.10;0.10;;;;;;;;;;6159420;23;20032;-80
2023/06/10 15:40:00;;;;;;;0.00;0.00;;;;;;;;;;6161216;23;20017;-80
2023/06/10 15:42:46;;;;;;;0.00;0.00;;;;;;;;;;6162132;23;20021;-80
2023/06/10 15:45:31;;;;;;;0.10;0.10;;;;;;;;;;6124424;23;20021;-80
2023/06/10 15:48:17;;;;;;;0.00;0.00;;;;;;;;;;6030440;23;20486;-80
2023/06/10 15:51:03;;;;;;;0.00;0.00;;;;;;;;;;6111949;23;20013;-80
2023/06/10 15:53:50;;;;;;;0.00;0.00;;;;;;;;;;6159127;23;20031;-80
2023/06/10 15:56:35;;;;;;;0.00;0.00;;;;;;;;;;6159587;23;20017;-80
2023/06/10 15:59:21;;;;;;;0.03;0.03;;;;;;;;;;6161738;23;20017;-79
2023/06/10 16:02:07;;;;;;;0.00;0.00;;;;;;;;;;6071173;23;20044;-80
2023/06/10 16:04:52;;;;;;;0.03;0.03;;;;;;;;;;5955353;23;20024;-80
2023/06/10 16:07:40;;;;;;;0.10;0.10;;;;;;;;;;6000406;23;20431;-80
2023/06/10 16:10:26;;;;;;;0.00;0.00;;;;;;;;;;6115509;23;20247;-80
2023/06/10 16:13:11;;;;;;;0.00;0.00;;;;;;;;;;6159400;23;20021;-80
2023/06/10 16:15:57;;;;;;;0.10;0.10;;;;;;;;;;6159309;23;20083;-80
2023/06/10 16:18:43;;;;;;;0.00;0.00;;;;;;;;;;6159493;23;20389;-79
2023/06/10 16:21:29;;;;;;;0.00;0.00;;;;;;;;;;6161361;23;20017;-79
2023/06/10 16:24:15;;;;;;;0.00;0.00;;;;;;;;;;6164155;23;20071;-79
2023/06/10 16:27:01;;;;;;;0.00;0.00;;;;;;;;;;6159242;23;20009;-80
2023/06/10 16:29:47;;;;;;;0.00;0.00;;;;;;;;;;6161642;23;20092;-80
2023/06/10 16:32:32;;;;;;;0.00;0.00;;;;;;;;;;6159542;23;20518;-79
2023/06/10 16:35:18;;;;;;;0.00;0.00;;;;;;;;;;6159911;23;20056;-79
2023/06/10 16:38:04;;;;;;;0.00;0.00;;;;;;;;;;6160138;23;20017;-80
2023/06/10 16:40:50;;;;;;;0.00;0.00;;;;;;;;;;6159171;23;20017;-79
2023/06/10 16:43:35;;;;;;;0.00;0.00;;;;;;;;;;6162194;23;20023;-79